Time;durP1;ratioP1;P1;durP2;ratioP2;P2;SDS_P1;SDS_P2;PMS_P1;PMS_P2;Temp;Humidity;BMP_temperature;BMP_pressure;BME280_temperature;BME280_humidity;BME280_pressure;Samples;Min_cycle;Max_cycle;Signal;HPM_P1;HPM_P2
2023/02/09 00:00:27;;;;;;;63.95;21.73;;;-3.50;99.90;;;;;;4197312;28;20264;-80
2023/02/09 00:02:32;;;;;;;65.25;21.50;;;-3.10;99.90;;;;;;4199857;28;20229;-80
2023/02/09 00:04:34;;;;;;;60.63;21.92;;;-3.50;99.90;;;;;;4198488;28;20737;-80
2023/02/09 00:06:37;;;;;;;61.53;22.70;;;-3.50;99.90;;;;;;4198883;28;20214;-79
2023/02/09 00:08:39;;;;;;;66.18;22.05;;;-3.50;99.90;;;;;;4203646;28;20205;-80
2023/02/09 00:10:41;;;;;;;58.75;22.40;;;-3.60;99.90;;;;;;4203075;28;20224;-79
2023/02/09 00:15:04;;;;;;;60.97;22.50;;;-3.60;99.90;;;;;;4198616;28;20197;-80
2023/02/09 00:17:07;;;;;;;65.13;22.83;;;-3.60;99.90;;;;;;4214721;28;20225;-80
2023/02/09 00:19:10;;;;;;;61.00;22.02;;;-3.60;99.90;;;;;;4199677;28;20202;-80
2023/02/09 00:21:12;;;;;;;63.55;21.58;;;-3.70;99.90;;;;;;4200519;28;20194;-80
2023/02/09 00:23:15;;;;;;;66.85;23.00;;;-3.70;99.90;;;;;;4200638;28;20221;-79
2023/02/09 00:25:17;;;;;;;61.25;22.17;;;-3.70;99.90;;;;;;4199482;28;20206;-79
2023/02/09 00:27:19;;;;;;;60.67;21.42;;;-3.70;99.90;;;;;;4198780;28;20272;-80
2023/02/09 00:29:22;;;;;;;55.80;21.38;;;-3.70;99.90;;;;;;4197054;28;20202;-79
2023/02/09 00:31:26;;;;;;;57.38;20.33;;;-3.70;99.90;;;;;;4202672;28;20209;-79
2023/02/09 00:33:28;;;;;;;63.10;22.17;;;-3.80;99.90;;;;;;4202336;28;20202;-79
2023/02/09 00:35:30;;;;;;;62.30;21.58;;;-3.80;99.90;;;;;;4203839;28;20201;-79
2023/02/09 00:37:34;;;;;;;57.65;21.75;;;-3.80;99.90;;;;;;4202383;28;20214;-80
2023/02/09 00:39:38;;;;;;;66.68;23.20;;;-3.80;99.90;;;;;;4204870;28;20241;-79
2023/02/09 00:43:59;;;;;;;65.57;22.98;;;-3.90;99.90;;;;;;4198655;28;20209;-80
2023/02/09 00:46:01;;;;;;;57.45;22.17;;;-3.90;99.90;;;;;;4195476;28;20210;-80
2023/02/09 00:48:03;;;;;;;61.08;22.05;;;-3.80;99.90;;;;;;4197988;28;20720;-80
2023/02/09 00:50:07;;;;;;;53.08;20.45;;;-3.90;99.90;;;;;;4198368;28;20227;-80
2023/02/09 00:52:09;;;;;;;57.15;21.05;;;-3.90;99.90;;;;;;4196033;28;20205;-80
2023/02/09 00:54:11;;;;;;;55.78;20.40;;;-3.90;99.90;;;;;;4195485;28;20757;-80
2023/02/09 00:56:15;;;;;;;57.30;22.02;;;-4.00;99.90;;;;;;4193501;28;20217;-80
2023/02/09 00:58:18;;;;;;;60.47;21.33;;;-4.00;99.90;;;;;;4196783;28;20210;-80
2023/02/09 01:00:20;;;;;;;57.20;20.38;;;-4.00;99.90;;;;;;4193079;28;20230;-79
2023/02/09 01:02:22;;;;;;;63.53;23.05;;;-4.00;99.90;;;;;;4196532;28;20225;-80
2023/02/09 01:04:24;;;;;;;59.92;22.52;;;-4.10;99.90;;;;;;4194789;28;20206;-79
2023/02/09 01:06:26;;;;;;;61.75;22.38;;;-4.10;99.90;;;;;;4194904;28;20259;-80
2023/02/09 01:08:28;;;;;;;57.08;21.10;;;-4.10;99.90;;;;;;4197072;28;20212;-80
2023/02/09 01:10:30;;;;;;;67.00;23.38;;;-4.10;99.90;;;;;;4197326;28;20591;-79
2023/02/09 01:12:33;;;;;;;63.00;21.60;;;-4.00;99.90;;;;;;4192212;28;20201;-79
2023/02/09 01:14:37;;;;;;;64.90;21.90;;;-4.10;99.90;;;;;;4195241;28;20209;-79
2023/02/09 01:16:39;;;;;;;61.40;22.58;;;-4.10;99.90;;;;;;4198523;28;20209;-79
2023/02/09 01:18:41;;;;;;;57.40;21.75;;;-4.10;99.90;;;;;;4198883;28;20210;-80
2023/02/09 01:20:43;;;;;;;64.68;22.73;;;-4.00;99.90;;;;;;4192263;28;20303;-80
2023/02/09 01:22:45;;;;;;;60.58;21.30;;;-4.10;99.90;;;;;;4194535;28;20234;-79
2023/02/09 01:24:47;;;;;;;57.45;20.83;;;-4.10;99.90;;;;;;4191379;28;20663;-79
2023/02/09 01:26:49;;;;;;;56.83;21.40;;;-4.20;99.90;;;;;;4208920;28;20262;-79
2023/02/09 01:28:54;;;;;;;62.88;23.45;;;-4.20;99.90;;;;;;4192653;28;20237;-79
2023/02/09 01:30:56;;;;;;;63.10;21.75;;;-4.20;99.90;;;;;;4196175;28;20214;-79
2023/02/09 01:32:58;;;;;;;61.15;20.80;;;-4.20;99.90;;;;;;4189995;28;20213;-79
2023/02/09 01:35:00;;;;;;;59.88;20.67;;;-4.20;99.90;;;;;;4198288;28;20216;-79
2023/02/09 01:37:02;;;;;;;54.55;19.80;;;-3.90;99.90;;;;;;4194404;28;20231;-79
2023/02/09 01:39:05;;;;;;;62.38;21.67;;;-4.20;99.90;;;;;;4196796;28;20262;-79
2023/02/09 01:41:07;;;;;;;66.32;22.92;;;-4.30;99.90;;;;;;4202711;28;20223;-79
2023/02/09 01:43:11;;;;;;;66.70;22.55;;;-4.30;99.90;;;;;;4199220;28;20225;-79
2023/02/09 01:45:24;;;;;;;65.32;21.13;;;-3.90;99.90;;;;;;4196882;28;20205;-79
2023/02/09 01:47:26;;;;;;;56.58;20.80;;;-4.30;99.90;;;;;;4197023;28;20233;-79
2023/02/09 01:49:28;;;;;;;65.55;23.52;;;-4.30;99.90;;;;;;4191239;28;20713;-79
2023/02/09 01:51:34;;;;;;;62.08;20.90;;;-4.30;99.90;;;;;;4196973;28;20765;-79
2023/02/09 01:53:36;;;;;;;54.97;20.33;;;-4.20;99.90;;;;;;4194323;28;20267;-79
2023/02/09 01:55:47;;;;;;;53.45;19.60;;;-4.30;99.90;;;;;;4196439;28;20287;-79
2023/02/09 01:57:54;;;;;;;49.25;20.13;;;-4.20;99.90;;;;;;4193297;28;20210;-79
2023/02/09 02:00:00;;;;;;;54.97;19.50;;;-4.40;99.90;;;;;;4196371;28;20715;-79
2023/02/09 02:02:05;;;;;;;53.20;18.52;;;-4.40;99.90;;;;;;4196454;28;20285;-79
2023/02/09 02:04:08;;;;;;;52.58;18.52;;;-4.40;99.90;;;;;;4194577;28;20930;-79
2023/02/09 02:06:13;;;;;;;60.08;20.30;;;-4.50;99.90;;;;;;4195850;28;20278;-78
2023/02/09 02:08:20;;;;;;;57.58;20.70;;;-4.50;99.90;;;;;;4196773;28;20213;-78
2023/02/09 02:10:22;;;;;;;50.47;18.77;;;-4.50;99.90;;;;;;4195318;28;20237;-79
2023/02/09 02:12:26;;;;;;;48.13;18.35;;;-4.50;99.90;;;;;;4196279;28;20209;-79
2023/02/09 02:14:30;;;;;;;52.53;18.85;;;-3.60;99.90;;;;;;4193762;28;20214;-78
2023/02/09 02:16:45;;;;;;;57.53;19.52;;;-4.20;99.90;;;;;;4194704;28;20206;-79
2023/02/09 02:19:08;;;;;;;58.13;18.27;;;-4.60;99.90;;;;;;4193837;28;20598;-78
2023/02/09 02:22:04;;;;;;;53.83;18.33;;;-3.90;99.90;;;;;;4196179;28;20210;-79
2023/02/09 02:24:40;;;;;;;54.40;19.95;;;-4.60;99.90;;;;;;4195087;28;20217;-78
2023/02/09 02:26:54;;;;;;;56.05;19.13;;;-4.60;99.90;;;;;;4196115;28;20270;-78
2023/02/09 02:29:45;;;;;;;56.05;19.13;;;-4.30;99.90;;;;;;4193857;28;20209;-78
2023/02/09 02:32:14;;;;;;;56.03;18.80;;;-5.00;99.90;;;;;;4143402;28;20215;-79
2023/02/09 02:34:24;;;;;;;49.92;18.88;;;-4.60;99.90;;;;;;4144988;28;20223;-78
2023/02/09 02:36:31;;;;;;;56.00;19.65;;;-3.60;99.90;;;;;;4156816;28;20676;-78
2023/02/09 02:38:38;;;;;;;52.40;19.48;;;-4.70;99.90;;;;;;4196384;28;20212;-78
2023/02/09 02:40:47;;;;;;;52.97;18.25;;;-4.70;99.90;;;;;;4197979;28;20239;-78
2023/02/09 02:42:53;;;;;;;61.75;21.50;;;-4.70;99.90;;;;;;4196139;28;20634;-78
2023/02/09 02:45:03;;;;;;;54.03;18.52;;;-4.70;99.90;;;;;;4196218;28;20788;-78
2023/02/09 02:47:09;;;;;;;55.45;19.42;;;-4.40;99.90;;;;;;4197276;28;20207;-78
2023/02/09 02:49:17;;;;;;;51.13;19.63;;;-4.70;99.90;;;;;;4197534;28;20261;-78
2023/02/09 02:51:27;;;;;;;56.72;18.00;;;-4.70;99.90;;;;;;4197024;28;20217;-78
2023/02/09 02:53:33;;;;;;;50.63;18.80;;;-4.70;99.90;;;;;;4198498;28;20258;-78
2023/02/09 02:55:38;;;;;;;51.22;18.55;;;-3.60;99.90;;;;;;4198008;28;20206;-78
2023/02/09 02:57:43;;;;;;;57.53;19.38;;;-4.70;99.90;;;;;;4200334;28;20266;-78
2023/02/09 02:59:55;;;;;;;54.55;19.20;;;-4.70;99.90;;;;;;4203753;28;20243;-78
2023/02/09 03:02:03;;;;;;;47.03;17.90;;;-4.70;99.90;;;;;;4203592;28;20217;-78
2023/02/09 03:04:08;;;;;;;52.67;17.67;;;-4.80;99.90;;;;;;4204356;28;20229;-78
2023/02/09 03:06:12;;;;;;;50.40;17.80;;;-3.80;99.90;;;;;;4200780;28;20237;-78
2023/02/09 03:08:13;;;;;;;50.08;16.05;;;-4.80;99.90;;;;;;4194586;28;20209;-77
2023/02/09 03:10:27;;;;;;;49.72;18.23;;;-4.80;99.90;;;;;;4187518;28;20293;-78
2023/02/09 03:12:38;;;;;;;49.47;16.98;;;-4.80;99.90;;;;;;4197879;28;20325;-78
2023/02/09 03:14:47;;;;;;;52.15;18.17;;;-4.80;99.90;;;;;;4195777;28;20205;-78
2023/02/09 03:17:01;;;;;;;44.25;16.48;;;-3.90;99.90;;;;;;4196761;28;20235;-78
2023/02/09 03:19:13;;;;;;;48.33;16.35;;;-4.80;99.90;;;;;;4195320;28;20202;-78
2023/02/09 03:21:21;;;;;;;44.65;15.90;;;-4.80;99.90;;;;;;4193905;28;20263;-78
2023/02/09 03:23:31;;;;;;;45.55;15.38;;;-4.80;99.90;;;;;;4195576;28;20222;-78
2023/02/09 03:25:40;;;;;;;42.65;16.45;;;-4.80;99.90;;;;;;4193634;28;20360;-78
2023/02/09 03:27:45;;;;;;;40.35;15.77;;;-4.80;99.90;;;;;;4193350;28;20235;-78
2023/02/09 03:29:50;;;;;;;43.83;15.60;;;-4.80;99.90;;;;;;4195125;28;20592;-78
2023/02/09 03:31:52;;;;;;;49.42;17.02;;;-4.80;99.90;;;;;;4205284;28;20211;-77
2023/02/09 03:33:57;;;;;;;48.35;16.65;;;-4.80;99.90;;;;;;4194896;28;20197;-77
2023/02/09 03:36:02;;;;;;;39.97;15.60;;;-4.80;99.90;;;;;;4194843;28;20209;-77
2023/02/09 03:38:05;;;;;;;43.22;15.52;;;-4.80;99.90;;;;;;4193982;28;20210;-78
2023/02/09 03:40:08;;;;;;;44.30;15.43;;;-4.80;99.90;;;;;;4193101;28;20269;-77
2023/02/09 03:42:10;;;;;;;43.35;14.57;;;-4.80;99.90;;;;;;4191162;28;20202;-77
2023/02/09 03:44:26;;;;;;;41.40;15.05;;;-4.80;99.90;;;;;;4194324;28;20255;-77
2023/02/09 03:46:28;;;;;;;38.90;15.38;;;-4.80;99.90;;;;;;4191446;28;20198;-78
2023/02/09 03:48:30;;;;;;;46.38;17.00;;;-4.80;99.90;;;;;;4194806;28;20216;-78
2023/02/09 03:50:33;;;;;;;42.58;15.55;;;-4.80;99.90;;;;;;4193451;28;20225;-77
2023/02/09 03:52:36;;;;;;;46.72;15.57;;;-4.40;99.90;;;;;;4193636;28;20218;-78
2023/02/09 03:54:39;;;;;;;43.15;15.52;;;-4.80;99.90;;;;;;4192767;28;20235;-77
2023/02/09 03:56:41;;;;;;;42.15;14.77;;;-4.80;99.90;;;;;;4189451;28;20239;-78
2023/02/09 03:58:43;;;;;;;46.83;15.43;;;-4.60;99.90;;;;;;4193398;28;20212;-77
2023/02/09 04:00:44;;;;;;;40.30;14.52;;;-4.60;99.90;;;;;;4190723;28;20350;-78
2023/02/09 04:02:46;;;;;;;41.75;15.30;;;-4.90;99.90;;;;;;4193210;28;20212;-78
2023/02/09 04:04:48;;;;;;;39.28;15.38;;;-4.00;99.90;;;;;;4194531;28;20202;-78
2023/02/09 04:06:51;;;;;;;44.65;15.43;;;-4.90;99.90;;;;;;4194486;28;20245;-78
2023/02/09 04:08:55;;;;;;;50.50;16.42;;;-4.90;99.90;;;;;;4194797;28;20260;-77
2023/02/09 04:10:57;;;;;;;42.83;15.60;;;-4.90;99.90;;;;;;4194167;28;20221;-78
2023/02/09 04:12:59;;;;;;;47.03;15.85;;;-4.90;99.90;;;;;;4192640;28;20660;-77
2023/02/09 04:15:01;;;;;;;43.83;16.02;;;-4.60;99.90;;;;;;4192900;28;20224;-78
2023/02/09 04:17:03;;;;;;;46.90;15.77;;;-4.90;99.90;;;;;;4190051;28;20208;-78
2023/02/09 04:19:07;;;;;;;42.15;15.73;;;-4.90;99.90;;;;;;4191177;28;20229;-77
2023/02/09 04:21:09;;;;;;;44.88;14.80;;;-4.20;99.90;;;;;;4188548;28;20304;-77
2023/02/09 04:23:12;;;;;;;44.65;15.90;;;-5.00;99.90;;;;;;4193125;28;20224;-77
2023/02/09 04:25:15;;;;;;;41.45;14.38;;;-5.00;99.90;;;;;;4207080;28;20259;-77
2023/02/09 04:27:17;;;;;;;43.33;15.15;;;-5.00;99.90;;;;;;4191121;28;20212;-78
2023/02/09 04:29:19;;;;;;;44.70;15.15;;;-5.00;99.90;;;;;;4191485;28;20212;-77
2023/02/09 04:31:21;;;;;;;42.38;14.77;;;-5.00;99.90;;;;;;4193912;28;20202;-78
2023/02/09 04:33:24;;;;;;;40.60;14.80;;;-4.90;99.90;;;;;;4191812;28;20240;-78
2023/02/09 04:35:26;;;;;;;52.25;17.80;;;-4.90;99.90;;;;;;4188745;28;20667;-78
2023/02/09 04:37:28;;;;;;;50.72;16.50;;;-4.90;99.90;;;;;;4191692;28;20647;-77
2023/02/09 04:39:30;;;;;;;38.80;13.85;;;-4.90;99.90;;;;;;4193077;28;20251;-77
2023/02/09 04:41:33;;;;;;;44.97;15.43;;;-4.90;99.90;;;;;;4194714;28;20585;-78
2023/02/09 04:43:36;;;;;;;44.67;14.77;;;-4.90;99.90;;;;;;4193774;28;20220;-78
2023/02/09 04:45:38;;;;;;;36.70;13.95;;;-5.00;99.90;;;;;;4195184;28;20217;-77
2023/02/09 04:47:40;;;;;;;38.65;14.02;;;-4.70;99.90;;;;;;4195752;28;20244;-78
2023/02/09 04:49:43;;;;;;;40.10;13.50;;;-4.60;99.90;;;;;;4197327;28;20852;-79
2023/02/09 04:51:45;;;;;;;36.85;14.18;;;-4.70;99.90;;;;;;4191926;28;20751;-78
2023/02/09 04:53:47;;;;;;;39.08;13.85;;;-5.00;99.90;;;;;;4195453;28;20211;-77
2023/02/09 04:55:58;;;;;;;39.00;13.40;;;-5.00;99.90;;;;;;4194977;28;20212;-78
2023/02/09 05:00:21;;;;;;;38.75;13.93;;;-5.00;99.90;;;;;;4195589;28;20821;-79
2023/02/09 05:02:25;;;;;;;41.17;12.98;;;-5.00;99.90;;;;;;4192555;28;20236;-78
2023/02/09 05:04:27;;;;;;;30.15;11.95;;;-5.00;99.90;;;;;;4204207;28;20238;-78
2023/02/09 05:06:29;;;;;;;38.58;12.73;;;-5.00;99.90;;;;;;4203911;28;20209;-79
2023/02/09 05:08:32;;;;;;;31.38;12.00;;;-5.10;99.90;;;;;;4216006;28;20258;-78
2023/02/09 05:10:34;;;;;;;36.80;13.45;;;-5.20;99.90;;;;;;4200145;28;20286;-78
2023/02/09 05:12:36;;;;;;;33.30;12.55;;;-5.10;99.90;;;;;;4196798;28;20271;-78
2023/02/09 05:14:39;;;;;;;30.40;11.95;;;-5.10;99.90;;;;;;4196055;28;20209;-78
2023/02/09 05:16:41;;;;;;;30.70;11.70;;;-5.10;99.90;;;;;;4196972;28;20205;-78
2023/02/09 05:18:43;;;;;;;33.65;12.82;;;-5.10;99.90;;;;;;4191979;28;20213;-77
2023/02/09 05:20:46;;;;;;;32.78;12.10;;;-5.10;99.90;;;;;;4195917;28;20229;-78
2023/02/09 05:22:48;;;;;;;32.65;12.13;;;-5.10;99.90;;;;;;4194339;28;20231;-78
2023/02/09 05:24:50;;;;;;;35.83;12.52;;;-5.10;99.90;;;;;;4194590;28;20866;-78
2023/02/09 05:26:52;;;;;;;39.78;12.55;;;-5.00;99.90;;;;;;4200860;28;20212;-78
2023/02/09 05:28:54;;;;;;;30.20;11.07;;;-5.00;99.90;;;;;;4194752;28;20210;-78
2023/02/09 05:30:58;;;;;;;32.95;11.23;;;-5.10;99.90;;;;;;4195166;28;20603;-80
2023/02/09 05:33:00;;;;;;;35.03;12.13;;;-5.10;99.90;;;;;;4194464;28;20209;-77
2023/02/09 05:35:01;;;;;;;33.58;12.98;;;-5.10;99.90;;;;;;4190155;28;20227;-78
2023/02/09 05:37:03;;;;;;;37.65;12.02;;;-5.00;99.90;;;;;;4194967;28;20241;-77
2023/02/09 05:39:05;;;;;;;38.47;12.80;;;-5.00;99.90;;;;;;4193637;28;20225;-79
2023/02/09 05:41:10;;;;;;;33.70;12.23;;;-5.00;99.90;;;;;;4193130;28;20678;-78
2023/02/09 05:43:12;;;;;;;39.03;12.55;;;-5.00;99.90;;;;;;4188041;28;20267;-78
2023/02/09 05:45:13;;;;;;;30.33;11.73;;;-5.00;99.90;;;;;;4194090;28;20225;-79
2023/02/09 05:47:19;;;;;;;39.08;14.13;;;-5.10;99.90;;;;;;4191995;28;20683;-78
2023/02/09 05:49:21;;;;;;;42.70;13.50;;;-4.90;99.90;;;;;;4192847;28;20201;-79
2023/02/09 05:51:23;;;;;;;33.38;13.40;;;-5.10;99.90;;;;;;4191056;28;20218;-78
2023/02/09 05:53:25;;;;;;;37.97;12.13;;;-5.10;99.90;;;;;;4193532;28;20295;-79
2023/02/09 05:55:27;;;;;;;34.65;12.07;;;-5.10;99.90;;;;;;4197255;28;20688;-78
2023/02/09 05:57:29;;;;;;;34.10;12.57;;;-5.10;99.90;;;;;;4195644;28;20201;-78
2023/02/09 05:59:32;;;;;;;33.92;12.07;;;-5.20;99.90;;;;;;4194652;28;20730;-78
2023/02/09 06:01:34;;;;;;;31.27;11.48;;;-5.20;99.90;;;;;;4192983;28;20210;-78
2023/02/09 06:03:37;;;;;;;32.50;11.50;;;-4.80;99.90;;;;;;4209581;28;20299;-77
2023/02/09 06:05:39;;;;;;;29.95;11.63;;;-5.20;99.90;;;;;;4193630;28;20295;-78
2023/02/09 06:07:41;;;;;;;31.05;11.63;;;-5.20;99.90;;;;;;4190742;28;20236;-78
2023/02/09 06:09:44;;;;;;;39.33;13.10;;;-5.20;99.90;;;;;;4195190;28;20220;-78
2023/02/09 06:11:46;;;;;;;32.45;11.63;;;-4.90;99.90;;;;;;4193472;28;20212;-77
2023/02/09 06:13:49;;;;;;;30.52;11.32;;;-5.20;99.90;;;;;;4194046;28;20371;-78
2023/02/09 06:15:51;;;;;;;30.52;11.00;;;-5.30;99.90;;;;;;4191918;28;20680;-78
2023/02/09 06:17:53;;;;;;;33.38;11.48;;;-5.30;99.90;;;;;;4192459;28;20770;-79
2023/02/09 06:19:56;;;;;;;32.15;11.35;;;-5.30;99.90;;;;;;4193266;28;20232;-78
2023/02/09 06:21:58;;;;;;;28.15;11.05;;;-5.30;99.90;;;;;;4193128;28;20209;-77
2023/02/09 06:24:00;;;;;;;33.85;12.15;;;-5.40;99.90;;;;;;4193052;28;20806;-77
2023/02/09 06:26:06;;;;;;;32.40;11.40;;;-5.30;99.90;;;;;;4193592;28;20264;-77
2023/02/09 06:28:08;;;;;;;31.73;11.15;;;-5.30;99.90;;;;;;4194681;28;20203;-77
2023/02/09 06:30:11;;;;;;;30.33;10.85;;;-5.40;99.90;;;;;;4193511;28;20232;-77
2023/02/09 06:32:13;;;;;;;27.13;11.25;;;-5.40;99.90;;;;;;4195083;28;20204;-78
2023/02/09 06:34:15;;;;;;;27.58;10.27;;;-5.30;99.90;;;;;;4195153;28;20204;-78
2023/02/09 06:36:18;;;;;;;32.38;11.57;;;-5.40;99.90;;;;;;4193106;28;20232;-78
2023/02/09 06:38:20;;;;;;;30.70;11.55;;;-5.40;99.90;;;;;;4195369;28;20730;-78
2023/02/09 06:40:22;;;;;;;27.02;10.45;;;-5.00;99.90;;;;;;4193462;28;20233;-77
2023/02/09 06:42:42;;;;;;;28.27;11.25;;;-5.40;99.90;;;;;;4185433;28;20235;-77
2023/02/09 06:44:44;;;;;;;31.23;10.93;;;-5.40;99.90;;;;;;4190630;28;20214;-77
2023/02/09 06:46:46;;;;;;;28.55;10.23;;;-5.40;99.90;;;;;;4191172;28;20211;-78
2023/02/09 06:48:48;;;;;;;27.08;9.90;;;-5.40;99.90;;;;;;4209043;28;20230;-77
2023/02/09 06:50:50;;;;;;;27.08;10.18;;;-5.40;99.90;;;;;;4193647;28;20236;-78
2023/02/09 06:52:53;;;;;;;30.58;10.73;;;-5.40;99.90;;;;;;4185720;28;20667;-77
2023/02/09 06:54:55;;;;;;;29.25;10.75;;;-5.40;99.90;;;;;;4190612;28;20230;-79
2023/02/09 06:56:57;;;;;;;29.08;10.70;;;-5.30;99.90;;;;;;4189592;28;20209;-79
2023/02/09 06:58:59;;;;;;;27.88;10.23;;;-5.30;99.90;;;;;;4194807;28;20627;-79
2023/02/09 07:01:02;;;;;;;30.75;10.35;;;-5.30;99.90;;;;;;4197625;28;20238;-79
2023/02/09 07:03:04;;;;;;;29.40;10.13;;;-5.00;99.90;;;;;;4196579;28;20664;-79
2023/02/09 07:05:06;;;;;;;26.50;9.95;;;-5.00;99.90;;;;;;4200037;28;20292;-79
2023/02/09 07:07:08;;;;;;;29.50;11.45;;;-5.30;99.90;;;;;;4197333;28;20208;-79
2023/02/09 07:09:15;;;;;;;26.88;9.40;;;-5.30;99.90;;;;;;4202545;28;20206;-78
2023/02/09 07:11:18;;;;;;;26.73;9.93;;;-5.30;99.90;;;;;;4200157;28;20680;-79
2023/02/09 07:13:20;;;;;;;29.58;10.23;;;-5.30;99.90;;;;;;4200582;28;20232;-79
2023/02/09 07:15:22;;;;;;;25.17;9.40;;;-5.30;99.90;;;;;;4194883;28;20204;-79
2023/02/09 07:17:24;;;;;;;34.45;10.70;;;-5.30;99.90;;;;;;4193851;28;20692;-79
2023/02/09 07:19:26;;;;;;;30.02;10.70;;;-5.30;99.90;;;;;;4198495;28;20864;-79
2023/02/09 07:21:28;;;;;;;26.98;9.88;;;-5.30;99.90;;;;;;4199659;28;20208;-79
2023/02/09 07:23:30;;;;;;;40.03;10.48;;;-5.20;99.90;;;;;;4210843;28;20214;-78
2023/02/09 07:25:34;;;;;;;26.92;9.52;;;-5.20;99.90;;;;;;4201042;28;20237;-79
2023/02/09 07:27:36;;;;;;;23.20;9.75;;;-5.20;99.90;;;;;;4200323;28;20214;-78
2023/02/09 07:29:38;;;;;;;26.45;9.52;;;-5.20;99.90;;;;;;4198968;28;20237;-79
2023/02/09 07:31:40;;;;;;;26.15;10.35;;;-5.20;99.90;;;;;;4191827;28;20213;-79
2023/02/09 07:33:42;;;;;;;25.73;9.73;;;-5.20;99.90;;;;;;4204148;28;20204;-78
2023/02/09 07:35:44;;;;;;;27.15;9.60;;;-5.20;99.90;;;;;;4191995;28;20209;-79
2023/02/09 07:37:46;;;;;;;28.67;9.68;;;-5.10;99.90;;;;;;4209092;28;20306;-79
2023/02/09 07:39:48;;;;;;;22.13;8.65;;;-5.10;99.90;;;;;;4204057;28;20325;-79
2023/02/09 07:41:51;;;;;;;24.80;9.13;;;-5.10;99.90;;;;;;4191821;28;20586;-79
2023/02/09 07:43:55;;;;;;;23.30;9.32;;;-5.10;99.90;;;;;;4193832;28;20714;-79
2023/02/09 07:46:00;;;;;;;25.90;9.75;;;-5.10;99.90;;;;;;4194935;28;20247;-79
2023/02/09 07:48:02;;;;;;;22.13;9.02;;;-5.00;99.90;;;;;;4194049;28;20204;-79
2023/02/09 07:50:04;;;;;;;28.98;9.23;;;-5.00;99.90;;;;;;4194991;28;20251;-81
2023/02/09 07:52:06;;;;;;;25.98;9.23;;;-5.00;99.90;;;;;;4205784;28;20200;-79
2023/02/09 07:54:12;;;;;;;24.17;8.98;;;-4.90;99.90;;;;;;4192175;28;20229;-79
2023/02/09 07:56:14;;;;;;;26.02;9.48;;;-4.90;99.90;;;;;;4192852;28;20680;-79
2023/02/09 07:58:18;;;;;;;29.52;9.60;;;-4.90;99.90;;;;;;4184397;28;20208;-79
2023/02/09 08:00:21;;;;;;;24.67;8.48;;;-4.80;99.90;;;;;;4189537;28;20225;-79
2023/02/09 08:02:28;;;;;;;22.40;8.10;;;-4.80;99.90;;;;;;4210027;28;20219;-79
2023/02/09 08:04:30;;;;;;;22.55;9.02;;;-4.80;99.90;;;;;;4195066;28;20216;-79
2023/02/09 08:06:36;;;;;;;24.92;8.65;;;-4.70;99.90;;;;;;4189110;28;20244;-79
2023/02/09 08:08:38;;;;;;;23.73;9.32;;;-4.70;99.90;;;;;;4194454;28;20201;-79
2023/02/09 08:10:42;;;;;;;25.15;8.57;;;-4.70;99.90;;;;;;4194111;28;20657;-79
2023/02/09 08:13:02;;;;;;;24.02;8.48;;;-4.10;99.90;;;;;;4191732;28;20206;-79
2023/02/09 08:15:06;;;;;;;23.48;8.85;;;-4.60;99.90;;;;;;4195714;28;20188;-79
2023/02/09 08:17:23;;;;;;;22.92;9.15;;;-4.60;99.90;;;;;;4197125;28;20209;-79
2023/02/09 08:19:25;;;;;;;24.23;8.85;;;-4.60;99.90;;;;;;4210464;28;20212;-79
2023/02/09 08:21:28;;;;;;;27.83;8.68;;;-4.50;99.90;;;;;;4184414;28;20208;-79
2023/02/09 08:23:33;;;;;;;21.80;8.43;;;-4.50;99.90;;;;;;4212183;28;20263;-79
2023/02/09 08:25:36;;;;;;;25.13;9.25;;;-4.50;99.90;;;;;;4196932;28;20584;-79
2023/02/09 08:27:40;;;;;;;22.98;9.05;;;-4.40;99.90;;;;;;4195528;28;20246;-79
2023/02/09 08:29:42;;;;;;;24.23;9.70;;;-4.40;99.90;;;;;;4195744;28;20975;-79
2023/02/09 08:31:45;;;;;;;23.30;9.07;;;-4.30;99.90;;;;;;4198382;28;20666;-79
2023/02/09 08:33:49;;;;;;;22.38;8.95;;;-4.30;99.90;;;;;;4197280;28;20215;-79
2023/02/09 08:35:51;;;;;;;25.17;8.65;;;-4.10;99.90;;;;;;4197989;28;20230;-79
2023/02/09 08:37:53;;;;;;;23.67;9.27;;;-4.20;99.90;;;;;;4192356;28;20205;-81
2023/02/09 08:39:55;;;;;;;22.65;8.88;;;-4.10;99.90;;;;;;4195211;28;20619;-79
2023/02/09 08:41:59;;;;;;;23.10;8.68;;;-4.10;99.90;;;;;;4198198;28;20216;-78
2023/02/09 08:44:01;;;;;;;22.67;8.73;;;-4.00;99.90;;;;;;4212981;28;20219;-80
2023/02/09 08:46:04;;;;;;;26.45;8.88;;;-4.00;99.90;;;;;;4195577;28;20240;-79
2023/02/09 08:48:09;;;;;;;21.48;8.70;;;-3.90;99.90;;;;;;4198108;28;20206;-81
2023/02/09 08:50:11;;;;;;;26.80;8.48;;;-3.80;99.90;;;;;;4198227;28;20332;-79
2023/02/09 08:52:14;;;;;;;26.80;8.80;;;-3.80;99.90;;;;;;4215058;28;20214;-79
2023/02/09 08:54:16;;;;;;;23.27;8.60;;;-3.70;99.90;;;;;;4196574;28;20205;-78
2023/02/09 08:56:18;;;;;;;21.65;7.70;;;-3.60;99.90;;;;;;4196335;28;20202;-77
2023/02/09 08:58:20;;;;;;;23.02;8.82;;;-3.60;99.90;;;;;;4196438;28;20206;-78
2023/02/09 09:00:22;;;;;;;24.17;9.23;;;-3.50;99.90;;;;;;4197419;28;20226;-79
2023/02/09 09:02:27;;;;;;;23.08;8.63;;;-3.50;99.90;;;;;;4195803;28;20666;-78
2023/02/09 09:04:30;;;;;;;25.00;9.30;;;-3.40;99.90;;;;;;4195600;28;20267;-77
2023/02/09 09:06:33;;;;;;;25.52;8.63;;;-3.30;99.90;;;;;;4194776;28;20268;-76
2023/02/09 09:08:37;;;;;;;17.67;7.70;;;-3.30;99.90;;;;;;4192193;28;20655;-77
2023/02/09 09:10:39;;;;;;;23.83;8.50;;;-3.20;99.90;;;;;;4194159;28;20335;-77
2023/02/09 09:12:41;;;;;;;21.48;8.70;;;-3.10;99.90;;;;;;4194740;28;20214;-76
2023/02/09 09:14:43;;;;;;;24.08;8.77;;;-3.10;99.90;;;;;;4210070;28;20210;-78
2023/02/09 09:16:45;;;;;;;22.85;8.57;;;-3.10;99.90;;;;;;4190441;28;20283;-76
2023/02/09 09:18:48;;;;;;;20.65;7.97;;;-3.00;99.90;;;;;;4194292;28;20230;-76
2023/02/09 09:20:52;;;;;;;20.58;8.25;;;-2.90;99.90;;;;;;4196470;28;20229;-77
2023/02/09 09:22:58;;;;;;;17.73;7.70;;;-2.90;99.90;;;;;;4194458;28;20634;-77
2023/02/09 09:25:00;;;;;;;21.02;8.52;;;-2.80;99.90;;;;;;4192987;28;20213;-81
2023/02/09 09:27:01;;;;;;;22.13;8.50;;;-2.80;99.90;;;;;;4191722;28;20229;-77
2023/02/09 09:29:04;;;;;;;21.58;8.95;;;-2.70;99.90;;;;;;4193586;28;20293;-76
2023/02/09 09:31:08;;;;;;;19.88;8.27;;;-2.60;99.90;;;;;;4194025;28;20340;-76
2023/02/09 09:33:10;;;;;;;19.33;7.57;;;-2.50;99.90;;;;;;4190924;28;20207;-77
2023/02/09 09:35:12;;;;;;;22.70;8.15;;;-2.50;99.90;;;;;;4197071;28;20210;-76
2023/02/09 09:37:15;;;;;;;21.65;8.50;;;-2.40;99.90;;;;;;4197331;28;20217;-78
2023/02/09 09:39:18;;;;;;;21.73;8.20;;;-2.30;99.90;;;;;;4200821;28;20249;-81
2023/02/09 09:41:25;;;;;;;20.90;8.57;;;-2.20;99.90;;;;;;4205681;28;20321;-83
2023/02/09 09:43:31;;;;;;;20.33;7.40;;;-2.10;99.90;;;;;;4204629;28;20213;-81
2023/02/09 09:45:37;;;;;;;19.37;7.17;;;-1.60;99.90;;;;;;4203918;28;20743;-78
2023/02/09 09:47:41;;;;;;;19.35;7.72;;;-2.00;99.90;;;;;;4193131;28;20984;-77
2023/02/09 09:49:43;;;;;;;16.63;7.00;;;-1.90;99.90;;;;;;4196174;28;20252;-77
2023/02/09 09:51:49;;;;;;;20.57;7.73;;;-1.50;99.90;;;;;;4195529;28;20463;-77
2023/02/09 09:53:57;;;;;;;20.10;7.97;;;-1.70;99.90;;;;;;4194877;28;20560;-77
2023/02/09 09:56:02;;;;;;;18.60;7.20;;;-1.60;99.90;;;;;;4195259;28;20444;-77
2023/02/09 09:58:06;;;;;;;21.10;7.73;;;-1.60;99.90;;;;;;4195124;28;20289;-78
2023/02/09 10:00:17;;;;;;;22.67;8.07;;;-1.50;99.90;;;;;;4194772;28;20572;-79
2023/02/09 10:02:29;;;;;;;16.83;7.07;;;-1.50;99.90;;;;;;4188486;28;20479;-78
2023/02/09 10:04:31;;;;;;;15.77;7.17;;;-1.40;99.90;;;;;;4192933;28;20456;-78
2023/02/09 10:06:33;;;;;;;18.00;7.33;;;-1.30;99.90;;;;;;4194879;28;20467;-78
2023/02/09 10:08:42;;;;;;;18.80;7.30;;;-1.30;99.90;;;;;;4194422;28;20448;-78
2023/02/09 10:10:50;;;;;;;20.07;7.80;;;-1.20;99.90;;;;;;4184753;28;20473;-78
2023/02/09 10:12:54;;;;;;;19.57;7.40;;;-1.20;99.90;;;;;;4196791;28;20460;-78
2023/02/09 10:14:56;;;;;;;15.97;7.27;;;-1.00;99.90;;;;;;4195897;28;20884;-78
2023/02/09 10:16:58;;;;;;;20.87;7.63;;;-1.00;99.90;;;;;;4189010;28;20445;-78
2023/02/09 10:19:02;;;;;;;18.33;7.77;;;-1.00;99.90;;;;;;4192647;28;20464;-78
2023/02/09 10:21:06;;;;;;;16.93;7.20;;;-0.90;99.90;;;;;;4192286;28;21064;-78
2023/02/09 10:23:16;;;;;;;21.57;7.57;;;-0.80;99.90;;;;;;4193103;28;20866;-79
2023/02/09 10:25:39;;;;;;;18.30;7.43;;;-0.70;99.90;;;;;;4210677;28;20497;-78
2023/02/09 10:27:45;;;;;;;15.57;7.00;;;-0.70;99.90;;;;;;4194581;28;20463;-78
2023/02/09 10:29:47;;;;;;;15.17;6.47;;;-0.70;99.90;;;;;;4194812;28;20988;-78
2023/02/09 10:31:54;;;;;;;15.43;6.60;;;-0.40;99.90;;;;;;4189578;28;20457;-78
2023/02/09 10:33:58;;;;;;;16.37;7.13;;;-0.50;99.90;;;;;;4189552;28;20488;-78
2023/02/09 10:36:04;;;;;;;16.10;7.00;;;-0.50;99.90;;;;;;4194535;28;20479;-78
2023/02/09 10:38:16;;;;;;;14.13;6.77;;;-0.40;99.90;;;;;;4193896;28;20441;-82
2023/02/09 10:40:24;;;;;;;14.83;6.13;;;-0.30;99.90;;;;;;4193276;28;20577;-77